createdAt,value
2023-03-23T15:59:03.725Z,96782.88
2023-03-23T16:04:10.404Z,96780.28
2023-03-23T16:09:03.577Z,96783.41
2023-03-23T16:13:55.865Z,96765.72
2023-03-23T16:19:28.184Z,96759.69
2023-03-23T16:24:19.865Z,96756.09
2023-03-23T16:29:24.392Z,96742.91
2023-03-23T16:34:28.953Z,96726.91
2023-03-23T16:39:20.528Z,96735.16
2023-03-23T16:44:12.712Z,96727.13
2023-03-23T16:49:04.367Z,96715.22
2023-03-23T16:53:56.201Z,96714.44
2023-03-23T16:58:48.002Z,96702.56
2023-03-23T17:03:41.865Z,96695.84
2023-03-23T17:08:34.592Z,96692.94
2023-03-23T17:13:28.049Z,96715.88
2023-03-23T17:18:19.788Z,96737.78
2023-03-23T17:23:11.590Z,96732.53
2023-03-23T17:28:05.821Z,96730.88
2023-03-23T17:32:58.630Z,96715.09
2023-03-23T17:37:50.332Z,96698.09
2023-03-23T17:42:42.133Z,96694.63
2023-03-23T17:47:34.024Z,96676.63
2023-03-23T17:52:26.185Z,96694.69
2023-03-23T17:57:18.025Z,96701.91
2023-03-23T18:02:11.371Z,96687.84
2023-03-23T18:07:03.064Z,96686.50
2023-03-23T18:11:56.678Z,96685.47
2023-03-23T18:16:48.595Z,96663.16
2023-03-23T18:21:40.628Z,96680.69
2023-03-23T18:26:32.283Z,96676.22
2023-03-23T18:31:24.067Z,96667.19
2023-03-23T18:36:18.387Z,96671.75
2023-03-23T18:41:11.428Z,96664.78
2023-03-23T18:46:03.434Z,96647.03
2023-03-23T18:50:57.992Z,96642.56
2023-03-23T18:55:51.405Z,96657.56
2023-03-23T19:00:43.833Z,96666.56
2023-03-23T19:05:38.681Z,96669.31
2023-03-23T19:10:31.290Z,96674.28
2023-03-23T19:15:24.441Z,96669.19
2023-03-23T19:20:23.685Z,96676.88
2023-03-23T19:25:27.925Z,96687.00
2023-03-23T19:30:20.044Z,96682.97
2023-03-23T19:35:12.258Z,96679.78
2023-03-23T19:40:22.676Z,96677.13
2023-03-23T19:45:18.386Z,96676.16
2023-03-23T19:50:10.352Z,96678.94
2023-03-23T19:55:02.215Z,96670.38
2023-03-23T19:59:53.810Z,96670.72
2023-03-23T20:04:46.034Z,96671.63
2023-03-23T20:09:38.569Z,96674.94
2023-03-23T20:14:30.506Z,96678.25
2023-03-23T20:19:22.085Z,96660.44
2023-03-23T20:24:13.929Z,96666.41
2023-03-23T20:29:07.689Z,96654.84
2023-03-23T20:34:03.899Z,96656.28
2023-03-23T20:38:57.336Z,96656.59
2023-03-23T20:43:48.971Z,96663.41
2023-03-23T20:48:40.631Z,96669.88
2023-03-23T20:53:33.676Z,96687.69
2023-03-23T20:58:27.516Z,96688.25
2023-03-23T21:03:19.099Z,96692.06
2023-03-23T21:08:11.587Z,96687.53
2023-03-23T21:13:04.484Z,96694.31
2023-03-23T21:17:56.382Z,96680.06
2023-03-23T21:22:48.167Z,96694.94
2023-03-23T21:27:39.927Z,96675.50
2023-03-23T21:32:32.136Z,96685.53
2023-03-23T21:37:24.063Z,96685.25
2023-03-23T21:42:15.693Z,96683.09
2023-03-23T21:47:07.361Z,96676.63
2023-03-23T21:51:59.121Z,96664.78
2023-03-23T21:56:51.209Z,96673.91
2023-03-23T22:01:42.845Z,96673.38
2023-03-23T22:06:35.100Z,96653.41
2023-03-23T22:11:30.952Z,96670.66
2023-03-23T22:16:23.811Z,96663.91
2023-03-23T22:21:17.135Z,96677.66
2023-03-23T22:26:10.110Z,96693.06
2023-03-23T22:31:05.318Z,96698.19
2023-03-23T22:35:57.575Z,96705.22
2023-03-23T22:40:57.463Z,96703.06
2023-03-23T22:45:51.512Z,96696.06
2023-03-23T22:50:43.544Z,96696.88
2023-03-23T22:55:35.280Z,96694.19
2023-03-23T23:00:27.569Z,96696.09
2023-03-23T23:05:19.325Z,96709.56
2023-03-23T23:10:11.058Z,96719.78
2023-03-23T23:15:05.858Z,96724.09
2023-03-23T23:19:58.944Z,96729.72
2023-03-23T23:24:50.603Z,96736.72
2023-03-23T23:29:42.303Z,96742.69
2023-03-23T23:34:34.916Z,96737.56
2023-03-23T23:39:27.784Z,96740.28
2023-03-23T23:44:19.458Z,96741.09
2023-03-23T23:49:11.092Z,96729.81
2023-03-23T23:54:04.748Z,96740.31
2023-03-23T23:58:56.948Z,96743.03
